sensor_id;sensor_type;location;lat;lon;timestamp;pressure;altitude;pressure_sealevel;temperature;humidity
65758;BME280;52495;52.208;5.158;2022-08-23T00:00:51;101347.59;;;21.66;61.85
65758;BME280;52495;52.208;5.158;2022-08-23T00:03:18;101341.69;;;21.62;61.97
65758;BME280;52495;52.208;5.158;2022-08-23T00:05:44;101348.94;;;21.57;62.33
65758;BME280;52495;52.208;5.158;2022-08-23T00:08:11;101346.56;;;21.52;62.19
65758;BME280;52495;52.208;5.158;2022-08-23T00:10:40;101340.66;;;21.49;62.16
65758;BME280;52495;52.208;5.158;2022-08-23T00:13:07;101344.38;;;21.45;62.55
65758;BME280;52495;52.208;5.158;2022-08-23T00:15:36;101339.22;;;21.43;62.72
65758;BME280;52495;52.208;5.158;2022-08-23T00:18:03;101346.50;;;21.38;62.59
65758;BME280;52495;52.208;5.158;2022-08-23T00:20:29;101342.34;;;21.34;62.88
65758;BME280;52495;52.208;5.158;2022-08-23T00:23:00;101340.88;;;21.28;63.24
65758;BME280;52495;52.208;5.158;2022-08-23T00:25:28;101338.44;;;21.25;63.21
65758;BME280;52495;52.208;5.158;2022-08-23T00:27:55;101342.09;;;21.22;63.29
65758;BME280;52495;52.208;5.158;2022-08-23T00:30:22;101340.63;;;21.17;63.61
65758;BME280;52495;52.208;5.158;2022-08-23T00:32:50;101341.72;;;21.13;63.94
65758;BME280;52495;52.208;5.158;2022-08-23T00:35:17;101343.41;;;21.14;64.04
65758;BME280;52495;52.208;5.158;2022-08-23T00:37:45;101334.94;;;21.08;64.04
65758;BME280;52495;52.208;5.158;2022-08-23T00:40:14;101335.19;;;21.04;64.25
65758;BME280;52495;52.208;5.158;2022-08-23T00:42:43;101328.31;;;21.01;64.53
65758;BME280;52495;52.208;5.158;2022-08-23T00:45:43;101336.13;;;21.03;64.71
65758;BME280;52495;52.208;5.158;2022-08-23T00:48:37;101333.34;;;21.06;64.37
65758;BME280;52495;52.208;5.158;2022-08-23T00:51:10;101335.19;;;21.04;64.66
65758;BME280;52495;52.208;5.158;2022-08-23T00:53:45;101329.16;;;21.02;64.95
65758;BME280;52495;52.208;5.158;2022-08-23T00:56:16;101332.72;;;21.01;64.82
65758;BME280;52495;52.208;5.158;2022-08-23T00:58:44;101333.75;;;20.98;64.87
65758;BME280;52495;52.208;5.158;2022-08-23T01:01:11;101329.59;;;20.94;64.99
65758;BME280;52495;52.208;5.158;2022-08-23T01:03:45;101338.53;;;20.90;65.54
65758;BME280;52495;52.208;5.158;2022-08-23T01:06:19;101344.88;;;20.86;65.59
65758;BME280;52495;52.208;5.158;2022-08-23T01:08:56;101335.16;;;20.88;65.50
65758;BME280;52495;52.208;5.158;2022-08-23T01:11:27;101333.97;;;20.93;65.14
65758;BME280;52495;52.208;5.158;2022-08-23T01:14:00;101337.31;;;20.97;65.11
65758;BME280;52495;52.208;5.158;2022-08-23T01:16:33;101337.13;;;21.00;64.76
65758;BME280;52495;52.208;5.158;2022-08-23T01:19:07;101336.19;;;21.01;64.82
65758;BME280;52495;52.208;5.158;2022-08-23T01:21:40;101330.00;;;21.02;64.83
65758;BME280;52495;52.208;5.158;2022-08-23T01:24:11;101330.41;;;20.95;64.98
65758;BME280;52495;52.208;5.158;2022-08-23T01:26:39;101333.03;;;20.95;64.91
65758;BME280;52495;52.208;5.158;2022-08-23T01:29:06;101334.91;;;20.92;65.07
65758;BME280;52495;52.208;5.158;2022-08-23T01:31:34;101342.88;;;20.91;65.10
65758;BME280;52495;52.208;5.158;2022-08-23T01:34:05;101343.03;;;20.88;65.11
65758;BME280;52495;52.208;5.158;2022-08-23T01:36:32;101343.03;;;20.88;65.13
65758;BME280;52495;52.208;5.158;2022-08-23T01:39:00;101340.34;;;20.89;65.33
65758;BME280;52495;52.208;5.158;2022-08-23T01:41:28;101343.78;;;20.90;65.13
65758;BME280;52495;52.208;5.158;2022-08-23T01:43:55;101340.41;;;20.88;65.40
65758;BME280;52495;52.208;5.158;2022-08-23T01:46:25;101341.41;;;20.85;65.38
65758;BME280;52495;52.208;5.158;2022-08-23T01:48:53;101341.41;;;20.85;65.28
65758;BME280;52495;52.208;5.158;2022-08-23T01:51:22;101343.19;;;20.85;65.29
65758;BME280;52495;52.208;5.158;2022-08-23T01:53:49;101338.13;;;20.82;65.49
65758;BME280;52495;52.208;5.158;2022-08-23T01:56:17;101340.13;;;20.76;65.54
65758;BME280;52495;52.208;5.158;2022-08-23T01:58:54;101340.34;;;20.72;66.30
65758;BME280;52495;52.208;5.158;2022-08-23T02:01:24;101339.72;;;20.67;66.01
65758;BME280;52495;52.208;5.158;2022-08-23T02:03:51;101336.31;;;20.65;66.06
65758;BME280;52495;52.208;5.158;2022-08-23T02:06:17;101332.00;;;20.63;66.24
65758;BME280;52495;52.208;5.158;2022-08-23T02:08:46;101343.41;;;20.62;66.44
65758;BME280;52495;52.208;5.158;2022-08-23T02:11:32;101340.13;;;20.59;66.15
65758;BME280;52495;52.208;5.158;2022-08-23T02:14:10;101338.66;;;20.53;66.63
65758;BME280;52495;52.208;5.158;2022-08-23T02:16:49;101334.50;;;20.49;66.62
65758;BME280;52495;52.208;5.158;2022-08-23T02:19:17;101338.13;;;20.46;66.64
65758;BME280;52495;52.208;5.158;2022-08-23T02:21:44;101335.66;;;20.43;66.82
65758;BME280;52495;52.208;5.158;2022-08-23T02:24:13;101346.06;;;20.27;66.88
65758;BME280;52495;52.208;5.158;2022-08-23T02:26:43;101338.28;;;20.26;66.58
65758;BME280;52495;52.208;5.158;2022-08-23T02:29:12;101343.91;;;20.18;66.84
65758;BME280;52495;52.208;5.158;2022-08-23T02:31:40;101352.16;;;20.10;67.24
65758;BME280;52495;52.208;5.158;2022-08-23T02:34:08;101344.59;;;20.04;67.35
65758;BME280;52495;52.208;5.158;2022-08-23T02:36:36;101345.84;;;19.97;67.56
65758;BME280;52495;52.208;5.158;2022-08-23T02:39:04;101356.22;;;19.98;67.75
65758;BME280;52495;52.208;5.158;2022-08-23T02:41:31;101359.84;;;19.96;68.00
65758;BME280;52495;52.208;5.158;2022-08-23T02:43:59;101354.63;;;19.96;68.18
65758;BME280;52495;52.208;5.158;2022-08-23T02:46:29;101362.75;;;19.90;68.58
65758;BME280;52495;52.208;5.158;2022-08-23T02:48:55;101367.22;;;19.88;68.57
65758;BME280;52495;52.208;5.158;2022-08-23T02:51:24;101368.94;;;19.89;68.60
65758;BME280;52495;52.208;5.158;2022-08-23T02:53:53;101373.34;;;19.86;68.79
65758;BME280;52495;52.208;5.158;2022-08-23T02:56:21;101369.84;;;19.88;69.01
65758;BME280;52495;52.208;5.158;2022-08-23T02:58:49;101369.19;;;19.82;69.28
65758;BME280;52495;52.208;5.158;2022-08-23T03:01:19;101377.75;;;19.86;69.34
65758;BME280;52495;52.208;5.158;2022-08-23T03:03:49;101368.13;;;19.86;69.45
65758;BME280;52495;52.208;5.158;2022-08-23T03:06:16;101371.47;;;19.90;69.25
65758;BME280;52495;52.208;5.158;2022-08-23T03:08:44;101372.31;;;19.91;69.46
65758;BME280;52495;52.208;5.158;2022-08-23T03:11:12;101370.47;;;19.93;69.51
65758;BME280;52495;52.208;5.158;2022-08-23T03:13:43;101375.72;;;19.93;69.49
65758;BME280;52495;52.208;5.158;2022-08-23T03:16:11;101376.50;;;19.95;69.47
65758;BME280;52495;52.208;5.158;2022-08-23T03:18:44;101376.50;;;19.95;69.20
65758;BME280;52495;52.208;5.158;2022-08-23T03:21:15;101377.47;;;19.92;69.46
65758;BME280;52495;52.208;5.158;2022-08-23T03:23:44;101373.34;;;19.88;69.80
65758;BME280;52495;52.208;5.158;2022-08-23T03:26:12;101374.94;;;19.91;70.00
65758;BME280;52495;52.208;5.158;2022-08-23T03:28:40;101374.94;;;19.91;69.79
65758;BME280;52495;52.208;5.158;2022-08-23T03:31:09;101379.31;;;19.90;69.91
65758;BME280;52495;52.208;5.158;2022-08-23T03:33:59;101386.06;;;19.96;69.61
65758;BME280;52495;52.208;5.158;2022-08-23T03:36:27;101380.50;;;20.02;69.54
65758;BME280;52495;52.208;5.158;2022-08-23T03:38:59;101376.28;;;19.99;69.65
65758;BME280;52495;52.208;5.158;2022-08-23T03:41:25;101372.72;;;20.00;69.63
65758;BME280;52495;52.208;5.158;2022-08-23T03:43:52;101370.13;;;20.00;69.61
65758;BME280;52495;52.208;5.158;2022-08-23T03:46:19;101376.91;;;20.05;69.76
65758;BME280;52495;52.208;5.158;2022-08-23T03:48:53;101373.28;;;20.07;69.85
65758;BME280;52495;52.208;5.158;2022-08-23T03:51:21;101377.50;;;20.10;69.73
65758;BME280;52495;52.208;5.158;2022-08-23T03:53:50;101379.31;;;20.09;69.64
65758;BME280;52495;52.208;5.158;2022-08-23T03:56:21;101382.69;;;20.11;69.55
65758;BME280;52495;52.208;5.158;2022-08-23T03:58:48;101381.78;;;20.12;69.52
65758;BME280;52495;52.208;5.158;2022-08-23T04:01:15;101376.59;;;20.11;69.50
65758;BME280;52495;52.208;5.158;2022-08-23T04:03:42;101385.22;;;20.13;69.66
65758;BME280;52495;52.208;5.158;2022-08-23T04:06:09;101378.22;;;20.13;69.69
65758;BME280;52495;52.208;5.158;2022-08-23T04:08:37;101380.13;;;20.10;69.73
65758;BME280;52495;52.208;5.158;2022-08-23T04:11:06;101374.97;;;20.08;69.63
65758;BME280;52495;52.208;5.158;2022-08-23T04:13:35;101383.53;;;20.12;69.65
65758;BME280;52495;52.208;5.158;2022-08-23T04:16:06;101386.09;;;20.13;69.73
65758;BME280;52495;52.208;5.158;2022-08-23T04:18:34;101388.72;;;20.13;69.78
65758;BME280;52495;52.208;5.158;2022-08-23T04:21:08;101390.47;;;20.13;69.88
65758;BME280;52495;52.208;5.158;2022-08-23T04:23:37;101387.03;;;20.12;70.14
65758;BME280;52495;52.208;5.158;2022-08-23T04:26:06;101394.81;;;20.14;70.16
65758;BME280;52495;52.208;5.158;2022-08-23T04:28:34;101390.63;;;20.10;70.66
65758;BME280;52495;52.208;5.158;2022-08-23T04:31:02;101391.50;;;20.10;70.77
65758;BME280;52495;52.208;5.158;2022-08-23T04:33:31;101391.63;;;20.07;71.12
65758;BME280;52495;52.208;5.158;2022-08-23T04:35:59;101392.56;;;20.06;71.14
65758;BME280;52495;52.208;5.158;2022-08-23T04:38:27;101394.16;;;20.09;71.40
65758;BME280;52495;52.208;5.158;2022-08-23T04:40:59;101397.72;;;20.08;71.59
65758;BME280;52495;52.208;5.158;2022-08-23T04:43:46;101395.88;;;20.10;71.80
65758;BME280;52495;52.208;5.158;2022-08-23T04:46:14;101393.34;;;20.08;71.80
65758;BME280;52495;52.208;5.158;2022-08-23T04:48:44;101402.13;;;20.07;71.92
65758;BME280;52495;52.208;5.158;2022-08-23T04:51:11;101400.28;;;20.09;71.74
65758;BME280;52495;52.208;5.158;2022-08-23T04:53:39;101400.97;;;20.13;71.69
65758;BME280;52495;52.208;5.158;2022-08-23T04:56:36;101405.97;;;20.17;71.63
65758;BME280;52495;52.208;5.158;2022-08-23T04:59:05;101400.72;;;20.17;71.59
65758;BME280;52495;52.208;5.158;2022-08-23T05:01:32;101400.59;;;20.21;71.47
65758;BME280;52495;52.208;5.158;2022-08-23T05:03:59;101392.66;;;20.22;71.54
65758;BME280;52495;52.208;5.158;2022-08-23T05:06:26;101400.69;;;20.19;71.72
65758;BME280;52495;52.208;5.158;2022-08-23T05:08:53;101400.91;;;20.14;72.12
65758;BME280;52495;52.208;5.158;2022-08-23T05:11:20;101396.50;;;20.15;72.11
65758;BME280;52495;52.208;5.158;2022-08-23T05:13:48;101404.38;;;20.15;72.07
65758;BME280;52495;52.208;5.158;2022-08-23T05:16:16;101405.97;;;20.17;72.15
65758;BME280;52495;52.208;5.158;2022-08-23T05:18:58;101413.06;;;20.15;72.56
65758;BME280;52495;52.208;5.158;2022-08-23T05:21:25;101412.91;;;20.19;71.94
65758;BME280;52495;52.208;5.158;2022-08-23T05:23:52;101416.41;;;20.19;71.95
65758;BME280;52495;52.208;5.158;2022-08-23T05:26:20;101414.03;;;20.14;72.18
65758;BME280;52495;52.208;5.158;2022-08-23T05:28:49;101421.72;;;20.17;72.24
65758;BME280;52495;52.208;5.158;2022-08-23T05:31:22;101418.09;;;20.20;72.32
65758;BME280;52495;52.208;5.158;2022-08-23T05:33:52;101412.78;;;20.22;72.37
65758;BME280;52495;52.208;5.158;2022-08-23T05:36:27;101418.81;;;20.24;72.32
65758;BME280;52495;52.208;5.158;2022-08-23T05:38:54;101418.88;;;20.22;72.34
65758;BME280;52495;52.208;5.158;2022-08-23T05:41:22;101423.97;;;20.25;72.45
65758;BME280;52495;52.208;5.158;2022-08-23T05:43:50;101420.50;;;20.25;72.69
65758;BME280;52495;52.208;5.158;2022-08-23T05:46:18;101421.28;;;20.27;72.69
65758;BME280;52495;52.208;5.158;2022-08-23T05:48:56;101421.97;;;20.30;72.60
65758;BME280;52495;52.208;5.158;2022-08-23T05:51:26;101426.19;;;20.33;72.60
65758;BME280;52495;52.208;5.158;2022-08-23T05:53:56;101428.69;;;20.36;72.59
65758;BME280;52495;52.208;5.158;2022-08-23T05:56:25;101423.28;;;20.39;72.53
65758;BME280;52495;52.208;5.158;2022-08-23T05:58:54;101426.53;;;20.44;72.41
65758;BME280;52495;52.208;5.158;2022-08-23T06:01:21;101430.72;;;20.49;72.29
65758;BME280;52495;52.208;5.158;2022-08-23T06:03:51;101417.50;;;20.50;72.45
65758;BME280;52495;52.208;5.158;2022-08-23T06:06:20;101433.00;;;20.55;72.46
65758;BME280;52495;52.208;5.158;2022-08-23T06:08:47;101432.78;;;20.59;72.51
65758;BME280;52495;52.208;5.158;2022-08-23T06:11:16;101437.72;;;20.66;72.71
65758;BME280;52495;52.208;5.158;2022-08-23T06:13:45;101437.44;;;20.72;72.54
65758;BME280;52495;52.208;5.158;2022-08-23T06:16:14;101433.72;;;20.76;72.49
65758;BME280;52495;52.208;5.158;2022-08-23T06:18:42;101431.81;;;20.80;72.55
65758;BME280;52495;52.208;5.158;2022-08-23T06:21:31;101445.47;;;20.86;72.43
65758;BME280;52495;52.208;5.158;2022-08-23T06:23:58;101432.09;;;20.91;72.15
65758;BME280;52495;52.208;5.158;2022-08-23T06:26:28;101436.19;;;20.97;71.78
65758;BME280;52495;52.208;5.158;2022-08-23T06:28:58;101434.88;;;21.05;71.55
65758;BME280;52495;52.208;5.158;2022-08-23T06:31:28;101425.91;;;21.10;71.09
65758;BME280;52495;52.208;5.158;2022-08-23T06:34:18;101431.63;;;21.18;70.59
65758;BME280;52495;52.208;5.158;2022-08-23T06:37:16;101432.72;;;21.30;70.15
65758;BME280;52495;52.208;5.158;2022-08-23T06:40:05;101434.94;;;21.37;68.96
65758;BME280;52495;52.208;5.158;2022-08-23T06:42:50;101432.75;;;21.46;68.13
65758;BME280;52495;52.208;5.158;2022-08-23T06:45:24;101431.25;;;21.58;67.20
65758;BME280;52495;52.208;5.158;2022-08-23T06:47:53;101439.41;;;21.69;66.68
65758;BME280;52495;52.208;5.158;2022-08-23T06:50:20;101439.66;;;21.80;65.30
65758;BME280;52495;52.208;5.158;2022-08-23T06:53:07;101439.84;;;21.93;65.01
65758;BME280;52495;52.208;5.158;2022-08-23T06:55:41;101434.75;;;22.06;64.02
65758;BME280;52495;52.208;5.158;2022-08-23T06:58:27;101441.19;;;22.17;63.96
65758;BME280;52495;52.208;5.158;2022-08-23T07:01:18;101433.72;;;22.25;63.72
65758;BME280;52495;52.208;5.158;2022-08-23T07:04:24;101439.28;;;22.35;62.84
65758;BME280;52495;52.208;5.158;2022-08-23T07:07:20;101437.00;;;22.45;62.66
65758;BME280;52495;52.208;5.158;2022-08-23T07:09:48;101436.28;;;22.57;62.25
65758;BME280;52495;52.208;5.158;2022-08-23T07:12:16;101429.47;;;22.69;62.18
65758;BME280;52495;52.208;5.158;2022-08-23T07:14:44;101437.66;;;22.79;59.79
65758;BME280;52495;52.208;5.158;2022-08-23T07:17:11;101438.03;;;22.87;59.19
65758;BME280;52495;52.208;5.158;2022-08-23T07:19:39;101442.94;;;22.93;59.13
65758;BME280;52495;52.208;5.158;2022-08-23T07:22:09;101450.38;;;23.01;58.56
65758;BME280;52495;52.208;5.158;2022-08-23T07:24:36;101448.09;;;23.09;58.11
65758;BME280;52495;52.208;5.158;2022-08-23T07:27:05;101443.31;;;23.16;57.85
65758;BME280;52495;52.208;5.158;2022-08-23T07:29:40;101451.63;;;23.24;57.18
65758;BME280;52495;52.208;5.158;2022-08-23T07:32:08;101460.19;;;23.28;57.18
65758;BME280;52495;52.208;5.158;2022-08-23T07:34:35;101462.66;;;23.31;56.83
65758;BME280;52495;52.208;5.158;2022-08-23T07:37:03;101461.59;;;23.33;56.88
65758;BME280;52495;52.208;5.158;2022-08-23T07:39:30;101455.56;;;23.31;57.33
65758;BME280;52495;52.208;5.158;2022-08-23T07:41:58;101465.00;;;23.36;57.80
65758;BME280;52495;52.208;5.158;2022-08-23T07:44:27;101462.47;;;23.34;57.87
65758;BME280;52495;52.208;5.158;2022-08-23T07:46:55;101460.00;;;23.31;57.99
65758;BME280;52495;52.208;5.158;2022-08-23T07:49:22;101465.19;;;23.32;58.44
65758;BME280;52495;52.208;5.158;2022-08-23T07:51:50;101472.13;;;23.33;58.59
65758;BME280;52495;52.208;5.158;2022-08-23T07:54:19;101468.50;;;23.36;58.25
65758;BME280;52495;52.208;5.158;2022-08-23T07:57:05;101470.53;;;23.45;58.07
65758;BME280;52495;52.208;5.158;2022-08-23T07:59:52;101469.31;;;23.51;57.97
65758;BME280;52495;52.208;5.158;2022-08-23T08:02:37;101479.19;;;23.62;57.65
65758;BME280;52495;52.208;5.158;2022-08-23T08:05:08;101482.97;;;23.72;56.97
65758;BME280;52495;52.208;5.158;2022-08-23T08:07:35;101484.25;;;23.79;56.28
65758;BME280;52495;52.208;5.158;2022-08-23T08:10:03;101484.44;;;23.91;56.59
65758;BME280;52495;52.208;5.158;2022-08-23T08:12:30;101478.84;;;23.95;55.10
65758;BME280;52495;52.208;5.158;2022-08-23T08:15:03;101488.19;;;24.01;54.41
65758;BME280;52495;52.208;5.158;2022-08-23T08:17:36;101494.97;;;24.05;55.12
65758;BME280;52495;52.208;5.158;2022-08-23T08:20:10;101488.34;;;24.13;55.68
65758;BME280;52495;52.208;5.158;2022-08-23T08:22:55;101496.66;;;24.06;55.70
65758;BME280;52495;52.208;5.158;2022-08-23T08:25:33;101494.28;;;24.16;54.97
65758;BME280;52495;52.208;5.158;2022-08-23T08:28:02;101488.84;;;24.05;53.71
65758;BME280;52495;52.208;5.158;2022-08-23T08:30:31;101488.53;;;23.95;53.51
65758;BME280;52495;52.208;5.158;2022-08-23T08:33:00;101500.91;;;24.09;53.43
65758;BME280;52495;52.208;5.158;2022-08-23T08:35:28;101495.50;;;24.25;53.13
65758;BME280;52495;52.208;5.158;2022-08-23T08:37:54;101501.66;;;24.38;52.24
65758;BME280;52495;52.208;5.158;2022-08-23T08:40:27;101503.63;;;24.35;51.00
65758;BME280;52495;52.208;5.158;2022-08-23T08:43:20;101501.22;;;24.45;50.59
65758;BME280;52495;52.208;5.158;2022-08-23T08:46:03;101510.78;;;24.60;50.37
65758;BME280;52495;52.208;5.158;2022-08-23T08:48:38;101506.34;;;24.61;51.34
65758;BME280;52495;52.208;5.158;2022-08-23T08:51:17;101507.09;;;24.63;51.50
65758;BME280;52495;52.208;5.158;2022-08-23T08:53:48;101513.00;;;24.66;52.19
65758;BME280;52495;52.208;5.158;2022-08-23T08:56:37;101515.78;;;24.65;53.34
65758;BME280;52495;52.208;5.158;2022-08-23T08:59:39;101514.59;;;24.56;53.12
65758;BME280;52495;52.208;5.158;2022-08-23T09:02:15;101514.22;;;24.48;52.99
65758;BME280;52495;52.208;5.158;2022-08-23T09:04:47;101505.72;;;24.57;52.83
65758;BME280;52495;52.208;5.158;2022-08-23T09:07:20;101512.38;;;24.63;52.67
65758;BME280;52495;52.208;5.158;2022-08-23T09:10:14;101511.47;;;24.77;52.36
65758;BME280;52495;52.208;5.158;2022-08-23T09:13:19;101513.72;;;24.83;51.81
65758;BME280;52495;52.208;5.158;2022-08-23T09:15:57;101515.75;;;24.92;51.83
65758;BME280;52495;52.208;5.158;2022-08-23T09:18:31;101523.03;;;25.02;51.39
65758;BME280;52495;52.208;5.158;2022-08-23T09:20:58;101516.41;;;25.09;51.51
65758;BME280;52495;52.208;5.158;2022-08-23T09:23:30;101517.84;;;25.13;50.66
65758;BME280;52495;52.208;5.158;2022-08-23T09:26:02;101517.66;;;25.16;49.86
65758;BME280;52495;52.208;5.158;2022-08-23T09:28:35;101517.13;;;25.24;50.45
65758;BME280;52495;52.208;5.158;2022-08-23T09:31:04;101512.38;;;25.29;50.55
65758;BME280;52495;52.208;5.158;2022-08-23T09:33:40;101509.19;;;25.37;50.36
65758;BME280;52495;52.208;5.158;2022-08-23T09:36:16;101511.97;;;25.48;49.83
65758;BME280;52495;52.208;5.158;2022-08-23T09:38:51;101505.91;;;25.59;49.72
65758;BME280;52495;52.208;5.158;2022-08-23T09:41:24;101498.72;;;25.74;49.45
65758;BME280;52495;52.208;5.158;2022-08-23T09:43:54;101496.34;;;25.82;49.20
65758;BME280;52495;52.208;5.158;2022-08-23T09:46:26;101497.38;;;25.93;49.16
65758;BME280;52495;52.208;5.158;2022-08-23T09:48:58;101488.69;;;26.03;48.64
65758;BME280;52495;52.208;5.158;2022-08-23T09:51:36;101492.88;;;26.19;48.10
65758;BME280;52495;52.208;5.158;2022-08-23T09:54:17;101497.13;;;26.33;47.56
65758;BME280;52495;52.208;5.158;2022-08-23T09:56:50;101493.59;;;26.45;47.22
65758;BME280;52495;52.208;5.158;2022-08-23T09:59:20;101499.38;;;26.50;47.79
65758;BME280;52495;52.208;5.158;2022-08-23T10:01:48;101490.41;;;26.64;47.66
65758;BME280;52495;52.208;5.158;2022-08-23T10:04:39;101489.25;;;26.80;46.33
65758;BME280;52495;52.208;5.158;2022-08-23T10:07:22;101482.06;;;26.93;45.47
65758;BME280;52495;52.208;5.158;2022-08-23T10:09:54;101491.09;;;26.91;46.33
65758;BME280;52495;52.208;5.158;2022-08-23T10:12:41;101495.44;;;26.92;46.57
65758;BME280;52495;52.208;5.158;2022-08-23T10:15:09;101493.38;;;26.95;46.38
65758;BME280;52495;52.208;5.158;2022-08-23T10:17:39;101490.88;;;26.94;47.09
65758;BME280;52495;52.208;5.158;2022-08-23T10:20:19;101489.78;;;26.96;46.35
65758;BME280;52495;52.208;5.158;2022-08-23T10:22:52;101479.06;;;27.09;47.10
65758;BME280;52495;52.208;5.158;2022-08-23T10:25:36;101478.72;;;27.14;46.45
65758;BME280;52495;52.208;5.158;2022-08-23T10:28:14;101476.19;;;27.24;45.82
65758;BME280;52495;52.208;5.158;2022-08-23T10:31:08;101470.78;;;27.37;46.38
65758;BME280;52495;52.208;5.158;2022-08-23T10:33:42;101476.78;;;27.27;45.19
65758;BME280;52495;52.208;5.158;2022-08-23T10:36:16;101462.19;;;27.22;45.16
65758;BME280;52495;52.208;5.158;2022-08-23T10:38:52;101464.50;;;27.38;44.92
65758;BME280;52495;52.208;5.158;2022-08-23T10:41:33;101456.41;;;27.51;44.42
65758;BME280;52495;52.208;5.158;2022-08-23T10:44:16;101454.00;;;27.59;44.43
65758;BME280;52495;52.208;5.158;2022-08-23T10:46:57;101457.59;;;27.69;44.67
65758;BME280;52495;52.208;5.158;2022-08-23T10:49:30;101441.69;;;27.81;44.79
65758;BME280;52495;52.208;5.158;2022-08-23T10:52:00;101458.31;;;27.71;44.46
65758;BME280;52495;52.208;5.158;2022-08-23T10:54:34;101457.34;;;27.84;44.16
65758;BME280;52495;52.208;5.158;2022-08-23T10:57:14;101462.91;;;27.81;44.14
65758;BME280;52495;52.208;5.158;2022-08-23T10:59:43;101464.06;;;27.88;44.09
65758;BME280;52495;52.208;5.158;2022-08-23T11:02:17;101455.63;;;27.94;44.26
65758;BME280;52495;52.208;5.158;2022-08-23T11:05:01;101457.50;;;28.03;43.88
65758;BME280;52495;52.208;5.158;2022-08-23T11:07:35;101463.09;;;28.00;43.83
65758;BME280;52495;52.208;5.158;2022-08-23T11:10:12;101455.81;;;28.02;43.48
65758;BME280;52495;52.208;5.158;2022-08-23T11:12:53;101458.47;;;28.02;43.94
65758;BME280;52495;52.208;5.158;2022-08-23T11:15:27;101457.31;;;27.95;44.03
65758;BME280;52495;52.208;5.158;2022-08-23T11:18:04;101462.09;;;28.13;44.08
65758;BME280;52495;52.208;5.158;2022-08-23T11:21:00;101455.72;;;28.37;43.66
65758;BME280;52495;52.208;5.158;2022-08-23T11:23:51;101463.09;;;28.54;42.00
65758;BME280;52495;52.208;5.158;2022-08-23T11:29:29;101465.66;;;28.56;41.45
65758;BME280;52495;52.208;5.158;2022-08-23T11:32:29;101463.38;;;28.72;41.82
65758;BME280;52495;52.208;5.158;2022-08-23T11:35:08;101463.63;;;28.90;41.42
65758;BME280;52495;52.208;5.158;2022-08-23T11:38:04;101469.22;;;28.87;41.84
65758;BME280;52495;52.208;5.158;2022-08-23T11:41:12;101473.75;;;28.97;41.47
65758;BME280;52495;52.208;5.158;2022-08-23T11:43:48;101484.47;;;28.85;41.47
65758;BME280;52495;52.208;5.158;2022-08-23T11:46:26;101467.97;;;28.70;40.97
65758;BME280;52495;52.208;5.158;2022-08-23T11:49:35;101471.06;;;28.54;42.07
65758;BME280;52495;52.208;5.158;2022-08-23T11:52:18;101477.81;;;28.58;42.41
65758;BME280;52495;52.208;5.158;2022-08-23T11:55:16;101485.06;;;28.56;42.71
65758;BME280;52495;52.208;5.158;2022-08-23T11:57:56;101477.97;;;28.57;42.95
65758;BME280;52495;52.208;5.158;2022-08-23T12:00:55;101483.31;;;28.45;43.57
65758;BME280;52495;52.208;5.158;2022-08-23T12:03:32;101483.94;;;28.38;43.63
65758;BME280;52495;52.208;5.158;2022-08-23T12:06:36;101478.53;;;28.39;44.26
65758;BME280;52495;52.208;5.158;2022-08-23T12:09:13;101485.28;;;28.43;44.82
65758;BME280;52495;52.208;5.158;2022-08-23T12:12:12;101484.75;;;28.50;44.14
65758;BME280;52495;52.208;5.158;2022-08-23T12:14:53;101486.56;;;28.49;44.21
65758;BME280;52495;52.208;5.158;2022-08-23T12:20:30;101476.28;;;28.23;43.32
65758;BME280;52495;52.208;5.158;2022-08-23T12:23:04;101489.25;;;28.38;42.32
65758;BME280;52495;52.208;5.158;2022-08-23T12:25:33;101482.28;;;28.37;42.82
65758;BME280;52495;52.208;5.158;2022-08-23T12:28:06;101476.53;;;28.53;42.25
65758;BME280;52495;52.208;5.158;2022-08-23T12:30:39;101467.41;;;28.67;42.12
65758;BME280;52495;52.208;5.158;2022-08-23T12:33:20;101480.50;;;28.80;41.06
65758;BME280;52495;52.208;5.158;2022-08-23T12:36:00;101479.00;;;28.87;41.26
65758;BME280;52495;52.208;5.158;2022-08-23T12:38:38;101475.69;;;28.95;41.15
65758;BME280;52495;52.208;5.158;2022-08-23T12:41:20;101473.41;;;29.11;40.70
65758;BME280;52495;52.208;5.158;2022-08-23T12:43:59;101474.81;;;29.15;40.49
65758;BME280;52495;52.208;5.158;2022-08-23T12:46:37;101480.44;;;29.22;40.29
65758;BME280;52495;52.208;5.158;2022-08-23T12:49:07;101479.69;;;29.10;40.23
65758;BME280;52495;52.208;5.158;2022-08-23T12:51:39;101476.94;;;29.21;40.69
65758;BME280;52495;52.208;5.158;2022-08-23T12:54:13;101476.16;;;29.31;40.79
65758;BME280;52495;52.208;5.158;2022-08-23T12:56:44;101475.16;;;29.32;41.04
65758;BME280;52495;52.208;5.158;2022-08-23T12:59:29;101477.47;;;29.15;41.81
65758;BME280;52495;52.208;5.158;2022-08-23T13:02:02;101470.28;;;29.06;42.11
65758;BME280;52495;52.208;5.158;2022-08-23T13:04:30;101479.91;;;28.97;42.16
65758;BME280;52495;52.208;5.158;2022-08-23T13:07:01;101475.03;;;29.02;42.33
65758;BME280;52495;52.208;5.158;2022-08-23T13:09:33;101476.78;;;29.13;42.39
65758;BME280;52495;52.208;5.158;2022-08-23T13:12:02;101470.16;;;29.07;42.00
65758;BME280;52495;52.208;5.158;2022-08-23T13:14:35;101470.34;;;29.16;41.76
65758;BME280;52495;52.208;5.158;2022-08-23T13:17:16;101474.56;;;29.18;41.91
65758;BME280;52495;52.208;5.158;2022-08-23T13:19:44;101477.25;;;28.97;42.69
65758;BME280;52495;52.208;5.158;2022-08-23T13:22:13;101470.78;;;28.90;42.78
65758;BME280;52495;52.208;5.158;2022-08-23T13:24:57;101472.88;;;28.86;43.53
65758;BME280;52495;52.208;5.158;2022-08-23T13:27:26;101463.38;;;28.93;43.32
65758;BME280;52495;52.208;5.158;2022-08-23T13:29:56;101469.75;;;29.12;43.20